METAR AND TAF INFORMATION
METAR FOR LIPI
ADDS - METARS form results

(1227 UTC 07 August 2020)
Data provider http://aviationweather.gov/metar/data/
 
Forecast for: LIPI (RIVOLTO (IT-AFB), IT)
Text: TAF LIPI 070800Z 0709/0718 VRB03KT CAVOK
Forecast period: 0900 to 1800 UTC 07 August 2020
Forecast type: FROM: standard forecast or significant change
Winds: variable direction winds at 3 MPH (3 knots; 1.5 m/s)
Visibility: 6 or more miles (10+ km)
Ceiling: unknown
Clouds: missing
Weather: NSW  (no significant weather)
Text: TEMPO 0712/0718 19005KT 9999 FEW030
Forecast period: 1200 to 1800 UTC 07 August 2020
Forecast type: TEMPORARY: The following changes expected for less than half the time period
Winds: from the S (190 degrees) at 6 MPH (5 knots; 2.6 m/s)
Visibility: 6 or more miles (10+ km)
Ceiling: at least 12,000 feet AGL
Clouds: few clouds at 3000 feet AGL
Weather: no significant weather forecast for this period

 AIRPORT MAP

 RUNWAY INFORMATION
Runway 06 Runway length 8365 ft Runway width 144 ft
Runway elevation 163 ft Runway displaced threshold 0 ft Runway heading 59
Runway 24 Runway length 8365 ft Runway width 144 ft
Runway elevation 179 ft Runway displaced threshold 0 ft Runway heading 239

 AIRPORT FREQUENCIES
Type APP Name AVIANO APP Frequency 120.125 MHZ
Type TWR Name TWR Frequency 122.1 MHZ

 AIRPORT NEAR NAVIGATION AIDS
Type TACAN Name Rivolto Frequency 110000 KHZ
Type NDB Name Rivolto Frequency 371 KHZ



Powered by Virtual Airlines Manager [v2.6.2]